createdAt,value
2023-02-19T00:01:24.612Z,89.90
2023-02-19T00:03:54.776Z,90.40
2023-02-19T00:06:22.954Z,89.90
2023-02-19T00:08:50.227Z,89.80
2023-02-19T00:11:22.006Z,89.50
2023-02-19T00:13:51.954Z,89.50
2023-02-19T00:16:20.663Z,88.70
2023-02-19T00:18:47.688Z,88.90
2023-02-19T00:21:15.274Z,89.30
2023-02-19T00:23:42.262Z,89.60
2023-02-19T00:26:18.183Z,89.30
2023-02-19T00:28:50.858Z,90.10
2023-02-19T00:31:33.030Z,90.20
2023-02-19T00:34:03.946Z,89.10
2023-02-19T00:36:31.540Z,88.50
2023-02-19T00:38:58.514Z,87.50
2023-02-19T00:41:26.049Z,86.60
2023-02-19T00:44:01.675Z,85.80
2023-02-19T00:46:29.772Z,85.60
2023-02-19T00:48:57.004Z,85.50
2023-02-19T00:51:26.580Z,86.60
2023-02-19T00:53:53.495Z,85.90
2023-02-19T00:56:20.623Z,86.20
2023-02-19T00:58:48.057Z,86.90
2023-02-19T01:01:15.062Z,86.70
2023-02-19T01:03:42.163Z,86.50
2023-02-19T01:06:10.748Z,87.00
2023-02-19T01:08:38.018Z,87.10
2023-02-19T01:11:06.060Z,87.70
2023-02-19T01:13:33.758Z,87.30
2023-02-19T01:16:22.611Z,87.10
2023-02-19T01:18:49.598Z,86.80
2023-02-19T01:21:21.809Z,87.70
2023-02-19T01:23:50.156Z,87.70
2023-02-19T01:26:19.954Z,87.00
2023-02-19T01:28:48.416Z,87.00
2023-02-19T01:31:23.898Z,87.40
2023-02-19T01:34:02.080Z,86.70
2023-02-19T01:36:30.358Z,85.60
2023-02-19T01:38:59.620Z,86.00
2023-02-19T01:41:26.813Z,85.80
2023-02-19T01:44:00.855Z,85.50
2023-02-19T01:46:30.090Z,84.80
2023-02-19T01:49:04.461Z,85.60
2023-02-19T01:51:33.286Z,85.40
2023-02-19T01:54:04.875Z,85.00
2023-02-19T01:56:34.697Z,84.50
2023-02-19T01:59:02.719Z,85.30
2023-02-19T02:01:29.691Z,83.60
2023-02-19T02:03:56.718Z,84.80
2023-02-19T02:06:33.204Z,83.30
2023-02-19T02:09:19.721Z,83.90
2023-02-19T02:11:49.694Z,83.30
2023-02-19T02:14:19.655Z,84.30
2023-02-19T02:16:52.517Z,84.60
2023-02-19T02:19:31.150Z,85.20
2023-02-19T02:22:22.892Z,85.40
2023-02-19T02:25:27.104Z,85.90
2023-02-19T02:28:18.958Z,85.10
2023-02-19T02:30:56.366Z,85.50
2023-02-19T02:33:39.740Z,86.10
2023-02-19T02:36:07.316Z,85.40
2023-02-19T02:38:38.918Z,85.70
2023-02-19T02:41:06.675Z,85.10
2023-02-19T02:43:33.639Z,84.20
2023-02-19T02:46:00.597Z,84.20
2023-02-19T02:48:30.225Z,84.40
2023-02-19T02:51:09.410Z,84.20
2023-02-19T02:54:04.054Z,84.00
2023-02-19T02:56:32.032Z,84.10
2023-02-19T02:59:02.556Z,84.10
2023-02-19T03:01:56.441Z,84.80
2023-02-19T03:05:12.796Z,84.40
2023-02-19T03:08:14.649Z,85.50
2023-02-19T03:10:45.973Z,85.20
2023-02-19T03:13:47.129Z,84.10
2023-02-19T03:16:50.252Z,84.20
2023-02-19T03:19:20.540Z,83.90
2023-02-19T03:22:10.196Z,84.10
2023-02-19T03:25:06.375Z,84.40
2023-02-19T03:27:34.844Z,84.70
2023-02-19T03:30:07.550Z,83.30
2023-02-19T03:32:55.277Z,83.10
2023-02-19T03:35:30.411Z,83.20
2023-02-19T03:38:18.685Z,82.70
2023-02-19T03:41:07.271Z,82.50
2023-02-19T03:43:39.232Z,82.70
2023-02-19T03:46:14.335Z,81.80
2023-02-19T03:49:24.702Z,82.20
2023-02-19T03:51:57.995Z,83.30
2023-02-19T03:55:05.859Z,83.50
2023-02-19T03:57:56.381Z,83.20
2023-02-19T04:00:41.108Z,83.60
2023-02-19T04:03:11.369Z,83.90
2023-02-19T04:05:44.738Z,84.30
2023-02-19T04:08:19.251Z,83.50
2023-02-19T04:10:47.513Z,82.60
2023-02-19T04:13:35.848Z,82.00
2023-02-19T04:16:08.039Z,81.90
2023-02-19T04:18:39.427Z,81.50
2023-02-19T04:21:07.613Z,81.50
2023-02-19T04:23:42.875Z,82.60
2023-02-19T04:26:11.249Z,82.80
2023-02-19T04:28:39.182Z,82.80
2023-02-19T04:31:06.286Z,82.60
2023-02-19T04:33:33.170Z,82.80
2023-02-19T04:36:00.104Z,82.80
2023-02-19T04:38:27.033Z,81.50
2023-02-19T04:40:54.058Z,82.20
2023-02-19T04:43:21.267Z,82.30
2023-02-19T04:45:48.102Z,81.40
2023-02-19T04:48:14.961Z,80.10
2023-02-19T04:50:41.875Z,81.40
2023-02-19T04:53:08.845Z,82.30
2023-02-19T04:55:39.660Z,82.50
2023-02-19T04:58:06.502Z,82.30
2023-02-19T05:00:34.159Z,82.40
2023-02-19T05:03:01.658Z,83.10
2023-02-19T05:05:28.790Z,83.50
2023-02-19T05:07:55.733Z,83.70
2023-02-19T05:10:22.572Z,83.50
2023-02-19T05:12:49.446Z,82.40
2023-02-19T05:15:16.735Z,82.00
2023-02-19T05:17:43.562Z,82.60
2023-02-19T05:20:10.725Z,82.30
2023-02-19T05:22:37.621Z,82.40
2023-02-19T05:25:05.100Z,82.70
2023-02-19T05:27:32.125Z,83.50
2023-02-19T05:29:59.153Z,83.10
2023-02-19T05:32:26.264Z,83.50
2023-02-19T05:34:53.165Z,83.00
2023-02-19T05:37:20.257Z,82.60
2023-02-19T05:39:48.182Z,82.40
2023-02-19T05:42:15.551Z,81.50
2023-02-19T05:44:43.060Z,82.20
2023-02-19T05:47:10.560Z,82.50
2023-02-19T05:49:37.524Z,82.20
2023-02-19T05:52:04.952Z,82.30
2023-02-19T05:54:32.184Z,81.70
2023-02-19T05:56:59.205Z,82.40
2023-02-19T05:59:27.275Z,82.80
2023-02-19T06:01:55.211Z,82.10
2023-02-19T06:04:22.414Z,82.60
2023-02-19T06:06:49.698Z,82.40
2023-02-19T06:09:16.944Z,82.60
2023-02-19T06:11:44.154Z,82.20
2023-02-19T06:14:13.824Z,82.50
2023-02-19T06:16:41.112Z,82.70
2023-02-19T06:19:08.080Z,82.10
2023-02-19T06:21:35.041Z,82.00
2023-02-19T06:24:08.876Z,82.70
2023-02-19T06:26:36.053Z,81.80
2023-02-19T06:29:03.018Z,81.90
2023-02-19T06:31:30.140Z,82.00
2023-02-19T06:33:57.241Z,82.30
2023-02-19T06:36:24.466Z,82.00
2023-02-19T06:38:51.936Z,82.20
2023-02-19T06:41:19.449Z,81.70
2023-02-19T06:43:46.746Z,81.50
2023-02-19T06:46:14.496Z,81.80
2023-02-19T06:48:42.983Z,81.10
2023-02-19T06:51:14.987Z,80.60
2023-02-19T06:53:41.826Z,81.30
2023-02-19T06:56:24.663Z,79.70
2023-02-19T06:58:52.945Z,78.60
2023-02-19T07:01:19.967Z,77.50
2023-02-19T07:03:46.883Z,77.90
2023-02-19T07:06:13.679Z,79.00
2023-02-19T07:08:40.523Z,78.40
2023-02-19T07:11:07.444Z,79.40
2023-02-19T07:13:34.283Z,78.50
2023-02-19T07:16:04.209Z,78.90
2023-02-19T07:18:31.651Z,78.50
2023-02-19T07:21:06.118Z,79.80
2023-02-19T07:23:33.039Z,78.90
2023-02-19T07:26:00.328Z,78.50
2023-02-19T07:28:27.443Z,78.90
2023-02-19T07:30:54.833Z,79.00
2023-02-19T07:33:21.638Z,78.90
2023-02-19T07:35:49.980Z,79.00
2023-02-19T07:38:17.734Z,79.30
2023-02-19T07:41:05.214Z,78.40
2023-02-19T07:43:34.543Z,79.10
2023-02-19T07:46:05.950Z,77.80
2023-02-19T07:48:34.333Z,77.80
2023-02-19T07:51:01.581Z,76.80
2023-02-19T07:53:28.664Z,78.60
2023-02-19T07:56:00.942Z,78.20
2023-02-19T07:58:28.288Z,77.40
2023-02-19T08:00:55.257Z,76.90
2023-02-19T08:03:22.423Z,76.80
2023-02-19T08:05:53.856Z,77.30
2023-02-19T08:08:20.829Z,76.10
2023-02-19T08:11:06.494Z,77.10
2023-02-19T08:13:34.261Z,76.10
2023-02-19T08:16:17.091Z,77.30
2023-02-19T08:18:48.570Z,77.40
2023-02-19T08:21:20.515Z,76.10
2023-02-19T08:23:49.934Z,75.60
2023-02-19T08:26:17.888Z,75.70
2023-02-19T08:28:45.005Z,75.90
2023-02-19T08:31:13.708Z,76.10
2023-02-19T08:33:41.262Z,76.30
2023-02-19T08:36:09.553Z,77.10
2023-02-19T08:38:36.902Z,75.00
2023-02-19T08:41:14.158Z,75.40
2023-02-19T08:43:42.104Z,71.80
2023-02-19T08:46:10.771Z,71.70
2023-02-19T08:48:38.833Z,72.80
2023-02-19T08:51:08.830Z,71.90
2023-02-19T08:53:38.188Z,72.20
2023-02-19T08:56:07.248Z,72.90
2023-02-19T08:58:34.190Z,72.00
2023-02-19T09:01:01.081Z,71.60
2023-02-19T09:03:28.026Z,71.90
2023-02-19T09:05:54.936Z,71.60
2023-02-19T09:08:21.798Z,72.50
2023-02-19T09:10:58.781Z,72.80
2023-02-19T09:13:25.731Z,72.40
2023-02-19T09:15:52.616Z,72.50
2023-02-19T09:18:19.593Z,71.70
2023-02-19T09:20:46.461Z,72.50
2023-02-19T09:23:13.258Z,73.20
2023-02-19T09:25:40.104Z,72.50
2023-02-19T09:28:06.962Z,73.90
2023-02-19T09:30:33.903Z,73.60
2023-02-19T09:33:00.776Z,72.10
2023-02-19T09:35:27.799Z,74.00
2023-02-19T09:37:54.625Z,72.90
2023-02-19T09:40:22.529Z,72.80
2023-02-19T09:42:51.089Z,72.30
2023-02-19T09:45:24.297Z,74.20
2023-02-19T09:47:55.350Z,74.10
2023-02-19T09:50:30.991Z,71.80
2023-02-19T09:53:01.441Z,72.40
2023-02-19T09:55:40.905Z,71.20
2023-02-19T09:58:27.114Z,72.50
2023-02-19T10:00:56.239Z,73.00
2023-02-19T10:03:34.544Z,73.00
2023-02-19T10:06:26.014Z,72.70
2023-02-19T10:09:11.236Z,73.80
2023-02-19T10:11:38.449Z,73.50
2023-02-19T10:14:23.074Z,73.90
2023-02-19T10:16:50.560Z,74.20
2023-02-19T10:19:17.781Z,74.50
2023-02-19T10:21:44.952Z,76.60
2023-02-19T10:24:25.800Z,76.50
2023-02-19T10:26:52.851Z,76.90
2023-02-19T10:29:21.832Z,77.30
2023-02-19T10:31:48.791Z,77.90
2023-02-19T10:34:22.186Z,77.50
2023-02-19T10:36:51.047Z,77.40
2023-02-19T10:39:23.728Z,77.20
2023-02-19T10:41:52.137Z,77.70
2023-02-19T10:44:24.602Z,77.70
2023-02-19T10:46:55.389Z,75.90
2023-02-19T10:49:22.148Z,77.60
2023-02-19T10:51:49.877Z,77.20
2023-02-19T10:54:20.745Z,76.90
2023-02-19T10:56:48.021Z,77.70
2023-02-19T10:59:17.812Z,77.70
2023-02-19T11:02:17.783Z,77.70
2023-02-19T11:05:03.593Z,77.70
2023-02-19T11:07:30.840Z,79.00
2023-02-19T11:09:59.396Z,78.90
2023-02-19T11:12:36.651Z,78.90
2023-02-19T11:15:32.797Z,78.60
2023-02-19T11:18:17.752Z,79.30
2023-02-19T11:20:54.504Z,78.00
2023-02-19T11:23:30.254Z,78.80
2023-02-19T11:26:00.022Z,80.70
2023-02-19T11:28:26.857Z,81.80
2023-02-19T11:30:53.770Z,83.10
2023-02-19T11:33:27.500Z,83.50
2023-02-19T11:36:19.456Z,83.20
2023-02-19T11:38:46.412Z,83.80
2023-02-19T11:41:19.082Z,85.10
2023-02-19T11:44:07.391Z,85.40
2023-02-19T11:46:54.645Z,85.70
2023-02-19T11:49:41.149Z,85.50
2023-02-19T11:52:20.075Z,83.80
2023-02-19T11:55:06.407Z,83.00
2023-02-19T11:57:47.404Z,83.00
2023-02-19T12:00:24.833Z,82.50
2023-02-19T12:03:12.623Z,83.20
2023-02-19T12:05:50.726Z,82.70
2023-02-19T12:08:38.202Z,83.30
2023-02-19T12:11:35.693Z,84.20
2023-02-19T12:14:08.186Z,83.70
2023-02-19T12:16:52.847Z,83.60
2023-02-19T12:19:44.777Z,82.80
2023-02-19T12:22:34.958Z,83.40
2023-02-19T12:25:07.801Z,82.80
2023-02-19T12:27:54.862Z,83.90
2023-02-19T12:30:44.722Z,83.70
2023-02-19T12:33:32.434Z,86.60
2023-02-19T12:36:33.880Z,87.00
2023-02-19T12:39:31.400Z,87.90
2023-02-19T12:42:06.178Z,89.50
2023-02-19T12:44:38.721Z,90.50
2023-02-19T12:47:07.234Z,90.20
2023-02-19T12:49:39.836Z,89.90
2023-02-19T12:52:26.626Z,89.60
2023-02-19T12:54:58.172Z,90.30
2023-02-19T12:57:33.821Z,88.60
2023-02-19T13:00:16.410Z,88.60
2023-02-19T13:02:51.908Z,86.10
2023-02-19T13:05:31.752Z,84.00
2023-02-19T13:08:13.545Z,83.80
2023-02-19T13:10:50.347Z,83.00
2023-02-19T13:13:29.022Z,82.30
2023-02-19T13:16:02.492Z,83.00
2023-02-19T13:18:39.937Z,82.20
2023-02-19T13:21:07.583Z,83.30
2023-02-19T13:23:58.007Z,83.30
2023-02-19T13:26:38.840Z,84.10
2023-02-19T13:29:14.677Z,84.40
2023-02-19T13:31:56.633Z,84.60
2023-02-19T13:34:41.319Z,85.60
2023-02-19T13:37:09.760Z,86.20
2023-02-19T13:39:37.020Z,86.70
2023-02-19T13:42:04.667Z,86.80
2023-02-19T13:44:34.441Z,86.60
2023-02-19T13:47:06.086Z,86.90
2023-02-19T13:49:33.922Z,86.90
2023-02-19T13:52:03.017Z,87.20
2023-02-19T13:54:33.450Z,86.70
2023-02-19T13:57:24.435Z,86.30
2023-02-19T13:59:52.743Z,85.70
2023-02-19T14:02:22.719Z,84.70
2023-02-19T14:04:51.937Z,84.10
2023-02-19T14:07:18.820Z,83.70
2023-02-19T14:09:46.724Z,82.90
2023-02-19T14:12:15.697Z,83.40
2023-02-19T14:14:45.801Z,82.80
2023-02-19T14:17:35.774Z,82.40
2023-02-19T14:20:17.664Z,83.10
2023-02-19T14:22:47.653Z,82.30
2023-02-19T14:25:46.504Z,82.60
2023-02-19T14:28:22.789Z,83.00
2023-02-19T14:30:53.392Z,83.40
2023-02-19T14:33:35.746Z,83.10
2023-02-19T14:36:25.205Z,82.70
2023-02-19T14:38:54.020Z,82.60
2023-02-19T14:41:23.358Z,82.20
2023-02-19T14:43:52.645Z,83.00
2023-02-19T14:46:35.023Z,83.30
2023-02-19T14:49:12.221Z,82.90
2023-02-19T14:51:44.233Z,82.10
2023-02-19T14:54:21.419Z,83.30
2023-02-19T14:56:52.884Z,82.90
2023-02-19T14:59:19.584Z,82.90
2023-02-19T15:01:46.597Z,83.20
2023-02-19T15:04:29.291Z,82.70
2023-02-19T15:06:57.526Z,82.30
2023-02-19T15:09:36.621Z,82.60
2023-02-19T15:12:04.122Z,82.60
2023-02-19T15:14:32.970Z,83.10
2023-02-19T15:17:05.288Z,83.10
2023-02-19T15:19:39.627Z,82.90
2023-02-19T15:22:06.641Z,83.30
2023-02-19T15:24:33.818Z,83.40
2023-02-19T15:27:00.699Z,83.00
2023-02-19T15:29:28.528Z,83.40
2023-02-19T15:31:58.132Z,83.40
2023-02-19T15:34:30.084Z,83.40
2023-02-19T15:37:05.751Z,83.10
2023-02-19T15:39:39.077Z,83.50
2023-02-19T15:42:07.849Z,83.00
2023-02-19T15:45:04.766Z,82.70
2023-02-19T15:47:39.241Z,83.00
2023-02-19T15:50:28.540Z,83.80
2023-02-19T15:53:09.088Z,83.00
2023-02-19T15:55:54.027Z,83.50
2023-02-19T15:58:42.826Z,83.10
2023-02-19T16:01:26.260Z,83.70
2023-02-19T16:03:56.667Z,84.00
2023-02-19T16:06:25.898Z,84.10
2023-02-19T16:08:52.705Z,84.20
2023-02-19T16:11:22.585Z,83.70
2023-02-19T16:13:51.208Z,83.60
2023-02-19T16:16:39.875Z,84.30
2023-02-19T16:19:06.928Z,84.10
2023-02-19T16:21:33.998Z,84.10
2023-02-19T16:24:14.251Z,84.60
2023-02-19T16:26:45.236Z,85.20
2023-02-19T16:29:25.354Z,84.90
2023-02-19T16:31:55.768Z,84.60
2023-02-19T16:34:43.844Z,85.20
2023-02-19T16:37:56.694Z,85.40
2023-02-19T16:40:46.591Z,85.00
2023-02-19T16:43:13.341Z,84.60
2023-02-19T16:45:45.218Z,84.80
2023-02-19T16:48:13.436Z,85.30
2023-02-19T16:50:41.615Z,85.50
2023-02-19T16:53:26.111Z,86.10
2023-02-19T16:55:53.084Z,85.90
2023-02-19T16:58:20.079Z,86.40
2023-02-19T17:00:47.316Z,86.60
2023-02-19T17:03:18.050Z,86.40
2023-02-19T17:05:45.427Z,86.20
2023-02-19T17:08:34.184Z,85.10
2023-02-19T17:11:07.329Z,84.70
2023-02-19T17:13:34.167Z,84.20
2023-02-19T17:16:01.423Z,84.40
2023-02-19T17:18:28.560Z,83.90
2023-02-19T17:21:20.383Z,83.50
2023-02-19T17:23:47.407Z,83.30
2023-02-19T17:26:23.064Z,82.70
2023-02-19T17:28:50.213Z,82.70
2023-02-19T17:31:17.532Z,82.70
2023-02-19T17:33:44.746Z,82.60
2023-02-19T17:36:21.218Z,83.20
2023-02-19T17:38:48.229Z,83.70
2023-02-19T17:41:15.201Z,84.20
2023-02-19T17:43:42.037Z,83.60
2023-02-19T17:46:15.761Z,84.60
2023-02-19T17:48:42.648Z,84.10
2023-02-19T17:51:09.880Z,84.40
2023-02-19T17:53:36.930Z,84.80
2023-02-19T17:56:03.942Z,84.70
2023-02-19T17:58:30.891Z,85.80
2023-02-19T18:00:58.081Z,85.70
2023-02-19T18:03:24.900Z,85.90
2023-02-19T18:05:51.714Z,85.70
2023-02-19T18:08:18.603Z,85.60
2023-02-19T18:10:45.423Z,85.00
2023-02-19T18:13:12.415Z,85.10
2023-02-19T18:15:39.256Z,84.90
2023-02-19T18:18:06.109Z,85.30
2023-02-19T18:20:32.983Z,85.70
2023-02-19T18:22:59.959Z,85.30
2023-02-19T18:25:26.785Z,84.60
2023-02-19T18:27:54.314Z,84.20
2023-02-19T18:30:22.909Z,84.40
2023-02-19T18:32:50.551Z,85.20
2023-02-19T18:35:19.709Z,85.80
2023-02-19T18:37:51.629Z,85.40
2023-02-19T18:40:23.183Z,86.10
2023-02-19T18:42:50.026Z,86.70
2023-02-19T18:45:17.122Z,86.60
2023-02-19T18:47:47.698Z,87.00
2023-02-19T18:50:15.216Z,86.90
2023-02-19T18:52:42.160Z,85.90
2023-02-19T18:55:11.013Z,85.60
2023-02-19T18:57:37.973Z,85.70
2023-02-19T19:00:06.621Z,86.10
2023-02-19T19:02:47.085Z,86.50
2023-02-19T19:05:18.496Z,86.80
2023-02-19T19:07:45.338Z,86.20
2023-02-19T19:10:12.260Z,86.20
2023-02-19T19:12:39.204Z,86.60
2023-02-19T19:15:06.216Z,86.20
2023-02-19T19:17:33.029Z,86.40
2023-02-19T19:19:59.945Z,86.70
2023-02-19T19:22:26.847Z,86.60
2023-02-19T19:24:53.661Z,86.70
2023-02-19T19:27:20.761Z,87.20
2023-02-19T19:29:47.926Z,87.10
2023-02-19T19:32:15.116Z,87.50
2023-02-19T19:34:43.125Z,87.30
2023-02-19T19:37:10.188Z,86.50
2023-02-19T19:39:37.541Z,86.20
2023-02-19T19:42:04.649Z,86.40
2023-02-19T19:44:31.463Z,85.20
2023-02-19T19:46:58.336Z,84.60
2023-02-19T19:49:25.168Z,83.80
2023-02-19T19:51:52.348Z,83.50
2023-02-19T19:54:19.206Z,83.70
2023-02-19T19:56:47.367Z,83.30
2023-02-19T19:59:15.679Z,83.60
2023-02-19T20:01:54.010Z,83.60
2023-02-19T20:04:22.256Z,83.80
2023-02-19T20:06:49.495Z,85.10
2023-02-19T20:09:17.906Z,86.80
2023-02-19T20:11:50.926Z,88.30
2023-02-19T20:14:19.580Z,89.90
2023-02-19T20:16:47.639Z,91.10
2023-02-19T20:19:16.161Z,91.90
2023-02-19T20:21:48.316Z,92.40
2023-02-19T20:24:24.103Z,92.80
2023-02-19T20:26:53.360Z,93.00
2023-02-19T20:29:20.329Z,93.40
2023-02-19T20:31:51.329Z,93.50
2023-02-19T20:34:18.688Z,92.80
2023-02-19T20:36:48.175Z,91.90
2023-02-19T20:39:17.708Z,91.10
2023-02-19T20:41:50.504Z,90.00
2023-02-19T20:44:21.708Z,88.50
2023-02-19T20:46:50.912Z,88.50
2023-02-19T20:49:19.932Z,88.00
2023-02-19T20:51:55.603Z,87.80
2023-02-19T20:54:25.656Z,87.30
2023-02-19T20:56:54.843Z,86.10
2023-02-19T20:59:24.205Z,86.30
2023-02-19T21:01:51.175Z,85.70
2023-02-19T21:04:20.811Z,86.20
2023-02-19T21:06:47.689Z,86.10
2023-02-19T21:09:14.625Z,85.70
2023-02-19T21:11:42.660Z,85.60
2023-02-19T21:14:09.651Z,86.20
2023-02-19T21:16:36.836Z,85.90
2023-02-19T21:19:04.290Z,85.40
2023-02-19T21:21:31.881Z,85.30
2023-02-19T21:24:00.097Z,85.40
2023-02-19T21:26:36.791Z,84.00
2023-02-19T21:29:05.056Z,83.90
2023-02-19T21:31:46.320Z,83.50
2023-02-19T21:34:16.093Z,83.30
2023-02-19T21:36:43.230Z,83.10
2023-02-19T21:39:12.086Z,83.60
2023-02-19T21:41:39.118Z,83.10
2023-02-19T21:44:05.945Z,83.30
2023-02-19T21:46:35.753Z,83.40
2023-02-19T21:49:03.840Z,84.30
2023-02-19T21:51:33.484Z,84.40
2023-02-19T21:54:01.045Z,84.70
2023-02-19T21:56:30.322Z,85.40
2023-02-19T21:58:57.373Z,85.30
2023-02-19T22:01:26.373Z,85.40
2023-02-19T22:03:53.347Z,84.90
2023-02-19T22:06:22.998Z,85.20
2023-02-19T22:08:49.856Z,84.30
2023-02-19T22:11:16.695Z,84.00
2023-02-19T22:13:44.493Z,84.70
2023-02-19T22:16:11.801Z,84.70
2023-02-19T22:18:38.898Z,84.80
2023-02-19T22:21:06.863Z,84.30
2023-02-19T22:23:33.718Z,84.60
2023-02-19T22:26:00.586Z,84.70
2023-02-19T22:28:27.415Z,84.90
2023-02-19T22:30:54.262Z,84.90
2023-02-19T22:33:21.231Z,84.50
2023-02-19T22:35:48.074Z,83.50
2023-02-19T22:38:14.881Z,83.20
2023-02-19T22:40:41.708Z,83.30
2023-02-19T22:43:08.506Z,82.70
2023-02-19T22:45:35.362Z,82.90
2023-02-19T22:48:02.254Z,82.20
2023-02-19T22:50:29.131Z,82.40
2023-02-19T22:52:55.994Z,82.30
2023-02-19T22:55:22.930Z,82.60
2023-02-19T22:57:49.753Z,82.60
2023-02-19T23:00:19.335Z,82.20
2023-02-19T23:02:48.296Z,82.80
2023-02-19T23:05:16.696Z,82.00
2023-02-19T23:07:46.353Z,82.40
2023-02-19T23:10:14.035Z,81.80
2023-02-19T23:12:41.464Z,82.00
2023-02-19T23:15:09.358Z,82.10
2023-02-19T23:17:36.356Z,82.00
2023-02-19T23:20:03.882Z,83.00
2023-02-19T23:22:30.858Z,81.50
2023-02-19T23:24:58.890Z,81.50
2023-02-19T23:27:26.703Z,81.60
2023-02-19T23:29:53.508Z,80.90
2023-02-19T23:32:21.160Z,81.40
2023-02-19T23:34:48.280Z,81.10
2023-02-19T23:37:15.601Z,81.30
2023-02-19T23:39:42.469Z,81.80
2023-02-19T23:42:15.622Z,81.30
2023-02-19T23:44:45.512Z,81.70
2023-02-19T23:47:12.330Z,81.70
2023-02-19T23:49:39.186Z,82.50
2023-02-19T23:52:06.061Z,82.20
2023-02-19T23:54:32.904Z,82.30
2023-02-19T23:56:59.666Z,82.30
2023-02-19T23:59:26.529Z,81.70
